createdAt,value
2022-12-22T00:00:08.000Z,96263
2022-12-22T00:05:07.000Z,96266
2022-12-22T00:09:58.000Z,96266
2022-12-22T00:15:09.000Z,96258
2022-12-22T00:20:05.000Z,96255
2022-12-22T00:25:02.000Z,96258
2022-12-22T00:30:05.000Z,96244
2022-12-22T00:35:06.000Z,96249
2022-12-22T00:40:06.000Z,96249
2022-12-22T00:45:06.000Z,96248
2022-12-22T00:50:07.000Z,96259
2022-12-22T00:55:04.000Z,96265
2022-12-22T01:00:04.000Z,96254
2022-12-22T01:05:06.000Z,96249
2022-12-22T01:10:05.000Z,96246
2022-12-22T01:15:04.000Z,96241
2022-12-22T01:20:06.000Z,96261
2022-12-22T01:25:04.000Z,96262
2022-12-22T01:30:07.000Z,96276
2022-12-22T01:35:05.000Z,96267
2022-12-22T01:40:06.000Z,96277
2022-12-22T01:45:05.000Z,96280
2022-12-22T01:50:05.000Z,96278
2022-12-22T01:55:04.000Z,96272
2022-12-22T02:00:04.000Z,96279
2022-12-22T02:05:04.000Z,96282
2022-12-22T02:10:05.000Z,96279
2022-12-22T02:15:04.000Z,96269
2022-12-22T02:20:08.000Z,96250
2022-12-22T02:25:08.000Z,96256
2022-12-22T02:30:08.000Z,96246
2022-12-22T02:35:04.000Z,96256
2022-12-22T02:40:06.000Z,96267
2022-12-22T02:45:04.000Z,96273
2022-12-22T02:50:07.000Z,96270
2022-12-22T02:55:08.000Z,96254
2022-12-22T03:00:00.000Z,96240
2022-12-22T03:05:08.000Z,96221
2022-12-22T03:10:04.000Z,96222
2022-12-22T03:15:06.000Z,96227
2022-12-22T03:20:04.000Z,96229
2022-12-22T03:25:08.000Z,96211
2022-12-22T03:30:03.000Z,96207
2022-12-22T03:35:06.000Z,96203
2022-12-22T03:40:05.000Z,96202
2022-12-22T03:45:07.000Z,96194
2022-12-22T03:50:03.000Z,96198
2022-12-22T03:55:04.000Z,96204
2022-12-22T04:00:06.000Z,96195
2022-12-22T04:05:05.000Z,96169
2022-12-22T04:10:07.000Z,96163
2022-12-22T04:15:05.000Z,96162
2022-12-22T04:20:04.000Z,96158
2022-12-22T04:25:04.000Z,96146
2022-12-22T04:30:04.000Z,96142
2022-12-22T04:35:05.000Z,96141
2022-12-22T04:40:03.000Z,96146
2022-12-22T04:45:05.000Z,96146
2022-12-22T04:50:05.000Z,96153
2022-12-22T04:55:06.000Z,96167
2022-12-22T05:00:05.000Z,96170
2022-12-22T05:05:08.000Z,96176
2022-12-22T05:10:06.000Z,96172
2022-12-22T05:15:07.000Z,96183
2022-12-22T05:20:03.000Z,96187
2022-12-22T05:25:05.000Z,96204
2022-12-22T05:30:06.000Z,96194
2022-12-22T05:35:03.000Z,96204
2022-12-22T05:40:04.000Z,96221
2022-12-22T05:45:05.000Z,96220
2022-12-22T05:50:04.000Z,96200
2022-12-22T05:55:05.000Z,96204
2022-12-22T06:00:03.000Z,96214
2022-12-22T06:05:06.000Z,96206
2022-12-22T06:10:03.000Z,96219
2022-12-22T06:15:04.000Z,96202
2022-12-22T06:20:06.000Z,96216
2022-12-22T06:25:03.000Z,96204
2022-12-22T06:30:06.000Z,96217
2022-12-22T06:35:04.000Z,96224
2022-12-22T06:40:03.000Z,96210
2022-12-22T06:45:06.000Z,96220
2022-12-22T06:50:06.000Z,96219
2022-12-22T06:55:04.000Z,96208
2022-12-22T07:00:04.000Z,96216
2022-12-22T07:05:06.000Z,96224
2022-12-22T07:10:05.000Z,96215
2022-12-22T07:15:03.000Z,96227
2022-12-22T07:20:03.000Z,96224
2022-12-22T07:25:04.000Z,96250
2022-12-22T07:30:06.000Z,96238
2022-12-22T07:35:04.000Z,96231
2022-12-22T07:40:05.000Z,96225
2022-12-22T07:45:05.000Z,96200
2022-12-22T07:50:05.000Z,96209
2022-12-22T07:55:07.000Z,96233
2022-12-22T08:00:03.000Z,96258
2022-12-22T08:05:03.000Z,96270
2022-12-22T08:10:05.000Z,96275
2022-12-22T08:15:06.000Z,96271
2022-12-22T08:20:04.000Z,96265
2022-12-22T08:25:05.000Z,96253
2022-12-22T08:30:03.000Z,96256
2022-12-22T08:35:06.000Z,96270
2022-12-22T08:40:04.000Z,96258
2022-12-22T08:45:04.000Z,96270
2022-12-22T08:50:05.000Z,96281
2022-12-22T08:55:08.000Z,96294
2022-12-22T09:00:04.000Z,96296
2022-12-22T09:05:06.000Z,96308
2022-12-22T09:10:06.000Z,96321
2022-12-22T09:15:05.000Z,96331
2022-12-22T09:20:03.000Z,96330
2022-12-22T09:25:06.000Z,96338
2022-12-22T09:30:05.000Z,96324
2022-12-22T09:35:07.000Z,96326
2022-12-22T09:40:04.000Z,96351
2022-12-22T09:45:07.000Z,96346
2022-12-22T09:50:03.000Z,96345
2022-12-22T09:55:05.000Z,96348
2022-12-22T10:00:05.000Z,96320
2022-12-22T10:05:04.000Z,96333
2022-12-22T10:10:04.000Z,96349
2022-12-22T10:15:06.000Z,96340
2022-12-22T10:20:06.000Z,96347
2022-12-22T10:25:03.000Z,96336
2022-12-22T10:30:03.000Z,96336
2022-12-22T10:35:03.000Z,96333
2022-12-22T10:40:03.000Z,96321
2022-12-22T10:45:06.000Z,96327
2022-12-22T10:50:08.000Z,96320
2022-12-22T10:55:03.000Z,96327
2022-12-22T11:00:04.000Z,96339
2022-12-22T11:05:06.000Z,96342
2022-12-22T11:10:04.000Z,96333
2022-12-22T11:15:04.000Z,96345
2022-12-22T11:20:05.000Z,96341
2022-12-22T11:25:06.000Z,96342
2022-12-22T11:30:05.000Z,96324
2022-12-22T11:35:03.000Z,96326
2022-12-22T11:40:03.000Z,96320
2022-12-22T11:45:04.000Z,96318
2022-12-22T11:50:05.000Z,96314
2022-12-22T11:55:05.000Z,96300
2022-12-22T12:00:03.000Z,96309
2022-12-22T12:05:07.000Z,96310
2022-12-22T12:10:05.000Z,96317
2022-12-22T12:15:07.000Z,96311
2022-12-22T12:20:04.000Z,96302
2022-12-22T12:25:06.000Z,96314
2022-12-22T12:30:06.000Z,96318
2022-12-22T12:35:05.000Z,96303
2022-12-22T12:40:04.000Z,96319
2022-12-22T12:45:08.000Z,96317
2022-12-22T12:50:08.000Z,96305
2022-12-22T12:55:03.000Z,96302
2022-12-22T13:00:03.000Z,96300
2022-12-22T13:05:04.000Z,96299
2022-12-22T13:10:06.000Z,96306
2022-12-22T13:15:04.000Z,96334
2022-12-22T13:20:04.000Z,96315
2022-12-22T13:25:03.000Z,96312
2022-12-22T13:30:03.000Z,96314
2022-12-22T13:35:04.000Z,96312
2022-12-22T13:40:07.000Z,96315
2022-12-22T13:45:04.000Z,96294
2022-12-22T13:50:06.000Z,96302
2022-12-22T13:55:07.000Z,96292
2022-12-22T14:00:04.000Z,96292
2022-12-22T14:05:05.000Z,96286
2022-12-22T14:10:06.000Z,96301
2022-12-22T14:15:04.000Z,96296
2022-12-22T14:20:06.000Z,96299
2022-12-22T14:25:05.000Z,96303
2022-12-22T14:30:05.000Z,96303
2022-12-22T14:35:06.000Z,96304
2022-12-22T14:40:05.000Z,96310
2022-12-22T14:45:03.000Z,96308
2022-12-22T14:50:04.000Z,96322
2022-12-22T14:55:04.000Z,96332
2022-12-22T15:00:05.000Z,96309
2022-12-22T15:05:03.000Z,96321
2022-12-22T15:10:06.000Z,96312
2022-12-22T15:15:03.000Z,96307
2022-12-22T15:20:04.000Z,96301
2022-12-22T15:25:05.000Z,96286
2022-12-22T15:30:03.000Z,96281
2022-12-22T15:35:05.000Z,96297
2022-12-22T15:40:03.000Z,96291
2022-12-22T15:45:06.000Z,96297
2022-12-22T15:50:06.000Z,96311
2022-12-22T15:55:05.000Z,96299
2022-12-22T16:00:04.000Z,96316
2022-12-22T16:05:05.000Z,96304
2022-12-22T16:10:05.000Z,96299
2022-12-22T16:15:03.000Z,96295
2022-12-22T16:20:05.000Z,96293
2022-12-22T16:25:06.000Z,96297
2022-12-22T16:30:04.000Z,96292
2022-12-22T16:35:05.000Z,96305
2022-12-22T16:40:06.000Z,96300
2022-12-22T16:45:05.000Z,96294
2022-12-22T16:50:03.000Z,96277
2022-12-22T16:55:05.000Z,96284
2022-12-22T17:00:04.000Z,96258
2022-12-22T17:05:06.000Z,96247
2022-12-22T17:10:04.000Z,96251
2022-12-22T17:15:04.000Z,96243
2022-12-22T17:20:05.000Z,96233
2022-12-22T17:25:06.000Z,96224
2022-12-22T17:30:05.000Z,96226
2022-12-22T17:35:05.000Z,96226
2022-12-22T17:40:06.000Z,96226
2022-12-22T17:45:05.000Z,96203
2022-12-22T17:50:06.000Z,96201
2022-12-22T17:55:04.000Z,96195
2022-12-22T18:00:06.000Z,96177
2022-12-22T18:05:06.000Z,96164
2022-12-22T18:10:06.000Z,96154
2022-12-22T18:15:06.000Z,96150
2022-12-22T18:20:04.000Z,96151
2022-12-22T18:25:06.000Z,96139
2022-12-22T18:30:05.000Z,96144
2022-12-22T18:35:05.000Z,96148
2022-12-22T18:40:04.000Z,96137
2022-12-22T18:45:04.000Z,96140
2022-12-22T18:50:04.000Z,96142
2022-12-22T18:55:06.000Z,96139
2022-12-22T19:00:07.000Z,96120
2022-12-22T19:05:05.000Z,96113
2022-12-22T19:10:06.000Z,96110
2022-12-22T19:15:05.000Z,96113
2022-12-22T19:20:06.000Z,96114
2022-12-22T19:25:05.000Z,96101
2022-12-22T19:30:03.000Z,96094
2022-12-22T19:35:06.000Z,96092
2022-12-22T19:40:03.000Z,96092
2022-12-22T19:45:03.000Z,96071
2022-12-22T19:50:04.000Z,96066
2022-12-22T19:55:04.000Z,96059
2022-12-22T20:00:05.000Z,96057
2022-12-22T20:05:04.000Z,96064
2022-12-22T20:10:03.000Z,96069
2022-12-22T20:15:04.000Z,96060
2022-12-22T20:20:06.000Z,96056
2022-12-22T20:25:07.000Z,96066
2022-12-22T20:30:04.000Z,96062
2022-12-22T20:35:06.000Z,96041
2022-12-22T20:40:07.000Z,96052
2022-12-22T20:45:06.000Z,96018
2022-12-22T20:50:06.000Z,96023
2022-12-22T20:55:03.000Z,96026
2022-12-22T21:00:05.000Z,96012
2022-12-22T21:05:07.000Z,96020
2022-12-22T21:10:03.000Z,96009
2022-12-22T21:15:07.000Z,96014
2022-12-22T21:20:02.000Z,96007
2022-12-22T21:25:08.000Z,96017
2022-12-22T21:30:05.000Z,96021
2022-12-22T21:35:05.000Z,96014
2022-12-22T21:40:06.000Z,95988
2022-12-22T21:45:05.000Z,96012
2022-12-22T21:50:06.000Z,96012
2022-12-22T21:55:05.000Z,96007
2022-12-22T22:00:07.000Z,95995
2022-12-22T22:05:03.000Z,95987
2022-12-22T22:10:03.000Z,95992
2022-12-22T22:15:06.000Z,95999
2022-12-22T22:20:06.000Z,96007
2022-12-22T22:25:03.000Z,96005
2022-12-22T22:30:06.000Z,96008
2022-12-22T22:35:03.000Z,96004
2022-12-22T22:40:06.000Z,95996
2022-12-22T22:45:04.000Z,95988
2022-12-22T22:50:04.000Z,95990
2022-12-22T22:55:04.000Z,95981
2022-12-22T23:00:10.000Z,95983
2022-12-22T23:05:07.000Z,95991
2022-12-22T23:10:03.000Z,95999
2022-12-22T23:15:03.000Z,95998
2022-12-22T23:20:07.000Z,96010
2022-12-22T23:25:03.000Z,95993
2022-12-22T23:30:04.000Z,96000
2022-12-22T23:35:07.000Z,96001
2022-12-22T23:40:07.000Z,95991
2022-12-22T23:45:04.000Z,96003
2022-12-22T23:50:05.000Z,96007
2022-12-22T23:55:04.000Z,95994
